sensor_id;sensor_type;location;lat;lon;timestamp;P1;durP1;ratioP1;P2;durP2;ratioP2
9409;SDS011;4744;52.576;13.568;2023-02-28T00:00:32;2.55;;;2.35;;
9409;SDS011;4744;52.576;13.568;2023-02-28T00:03:00;4.10;;;2.00;;
9409;SDS011;4744;52.576;13.568;2023-02-28T00:05:27;2.30;;;2.10;;
9409;SDS011;4744;52.576;13.568;2023-02-28T00:07:55;2.33;;;2.13;;
9409;SDS011;4744;52.576;13.568;2023-02-28T00:10:23;3.67;;;2.00;;
9409;SDS011;4744;52.576;13.568;2023-02-28T00:12:53;2.20;;;2.00;;
9409;SDS011;4744;52.576;13.568;2023-02-28T00:15:23;2.17;;;1.98;;
9409;SDS011;4744;52.576;13.568;2023-02-28T00:17:50;2.08;;;1.92;;
9409;SDS011;4744;52.576;13.568;2023-02-28T00:20:18;2.35;;;1.92;;
9409;SDS011;4744;52.576;13.568;2023-02-28T00:22:46;3.53;;;1.85;;
9409;SDS011;4744;52.576;13.568;2023-02-28T00:25:16;2.17;;;2.00;;
9409;SDS011;4744;52.576;13.568;2023-02-28T00:27:44;3.75;;;1.95;;
9409;SDS011;4744;52.576;13.568;2023-02-28T00:30:13;2.10;;;1.92;;
9409;SDS011;4744;52.576;13.568;2023-02-28T00:32:44;2.35;;;2.10;;
9409;SDS011;4744;52.576;13.568;2023-02-28T00:35:11;2.20;;;2.00;;
9409;SDS011;4744;52.576;13.568;2023-02-28T00:37:38;2.35;;;1.90;;
9409;SDS011;4744;52.576;13.568;2023-02-28T00:40:05;2.08;;;1.80;;
9409;SDS011;4744;52.576;13.568;2023-02-28T00:42:34;2.55;;;1.95;;
9409;SDS011;4744;52.576;13.568;2023-02-28T00:45:02;2.67;;;1.90;;
9409;SDS011;4744;52.576;13.568;2023-02-28T00:47:30;1.70;;;1.58;;
9409;SDS011;4744;52.576;13.568;2023-02-28T00:49:58;1.90;;;1.80;;
9409;SDS011;4744;52.576;13.568;2023-02-28T00:52:26;2.35;;;2.00;;
9409;SDS011;4744;52.576;13.568;2023-02-28T00:54:53;2.90;;;1.83;;
9409;SDS011;4744;52.576;13.568;2023-02-28T00:57:20;2.08;;;1.88;;
9409;SDS011;4744;52.576;13.568;2023-02-28T00:59:47;2.10;;;1.90;;
9409;SDS011;4744;52.576;13.568;2023-02-28T01:02:13;2.72;;;1.92;;
9409;SDS011;4744;52.576;13.568;2023-02-28T01:04:40;2.00;;;1.90;;
9409;SDS011;4744;52.576;13.568;2023-02-28T01:07:09;2.33;;;1.80;;
9409;SDS011;4744;52.576;13.568;2023-02-28T01:09:36;2.47;;;1.70;;
9409;SDS011;4744;52.576;13.568;2023-02-28T01:12:03;2.13;;;1.88;;
9409;SDS011;4744;52.576;13.568;2023-02-28T01:14:30;2.10;;;1.90;;
9409;SDS011;4744;52.576;13.568;2023-02-28T01:16:57;1.83;;;1.73;;
9409;SDS011;4744;52.576;13.568;2023-02-28T01:19:24;1.90;;;1.70;;
9409;SDS011;4744;52.576;13.568;2023-02-28T01:21:51;2.20;;;1.70;;
9409;SDS011;4744;52.576;13.568;2023-02-28T01:24:19;3.10;;;2.10;;
9409;SDS011;4744;52.576;13.568;2023-02-28T01:26:46;2.08;;;1.90;;
9409;SDS011;4744;52.576;13.568;2023-02-28T01:29:13;1.98;;;1.70;;
9409;SDS011;4744;52.576;13.568;2023-02-28T01:31:40;1.95;;;1.85;;
9409;SDS011;4744;52.576;13.568;2023-02-28T01:34:07;2.37;;;1.70;;
9409;SDS011;4744;52.576;13.568;2023-02-28T01:36:34;2.00;;;1.90;;
9409;SDS011;4744;52.576;13.568;2023-02-28T01:39:01;1.75;;;1.65;;
9409;SDS011;4744;52.576;13.568;2023-02-28T01:41:30;1.85;;;1.70;;
9409;SDS011;4744;52.576;13.568;2023-02-28T01:44:00;2.17;;;1.97;;
9409;SDS011;4744;52.576;13.568;2023-02-28T01:46:30;2.00;;;1.90;;
9409;SDS011;4744;52.576;13.568;2023-02-28T01:49:00;2.23;;;2.03;;
9409;SDS011;4744;52.576;13.568;2023-02-28T01:51:33;2.20;;;1.90;;
9409;SDS011;4744;52.576;13.568;2023-02-28T01:54:05;3.67;;;2.00;;
9409;SDS011;4744;52.576;13.568;2023-02-28T01:56:40;2.13;;;1.90;;
9409;SDS011;4744;52.576;13.568;2023-02-28T01:59:12;1.77;;;1.65;;
9409;SDS011;4744;52.576;13.568;2023-02-28T02:01:45;2.42;;;2.05;;
9409;SDS011;4744;52.576;13.568;2023-02-28T02:04:13;2.90;;;1.90;;
9409;SDS011;4744;52.576;13.568;2023-02-28T02:06:41;2.25;;;2.05;;
9409;SDS011;4744;52.576;13.568;2023-02-28T02:09:10;2.40;;;1.93;;
9409;SDS011;4744;52.576;13.568;2023-02-28T02:11:37;1.87;;;1.77;;
9409;SDS011;4744;52.576;13.568;2023-02-28T02:17:05;2.17;;;1.97;;
9409;SDS011;4744;52.576;13.568;2023-02-28T02:23:06;2.63;;;2.20;;
9409;SDS011;4744;52.576;13.568;2023-02-28T02:25:53;2.50;;;2.20;;
9409;SDS011;4744;52.576;13.568;2023-02-28T02:31:30;1.70;;;1.60;;
9409;SDS011;4744;52.576;13.568;2023-02-28T02:34:27;3.00;;;2.20;;
9409;SDS011;4744;52.576;13.568;2023-02-28T02:37:04;3.00;;;2.33;;
9409;SDS011;4744;52.576;13.568;2023-02-28T02:39:40;2.77;;;2.37;;
9409;SDS011;4744;52.576;13.568;2023-02-28T02:42:15;2.63;;;2.40;;
9409;SDS011;4744;52.576;13.568;2023-02-28T02:44:48;3.50;;;1.97;;
9409;SDS011;4744;52.576;13.568;2023-02-28T02:47:23;5.50;;;2.43;;
9409;SDS011;4744;52.576;13.568;2023-02-28T02:49:55;2.47;;;2.20;;
9409;SDS011;4744;52.576;13.568;2023-02-28T02:52:28;3.03;;;2.20;;
9409;SDS011;4744;52.576;13.568;2023-02-28T02:55:00;2.50;;;2.30;;
9409;SDS011;4744;52.576;13.568;2023-02-28T02:57:30;2.47;;;1.90;;
9409;SDS011;4744;52.576;13.568;2023-02-28T03:00:00;2.33;;;2.13;;
9409;SDS011;4744;52.576;13.568;2023-02-28T03:02:30;2.80;;;2.40;;
9409;SDS011;4744;52.576;13.568;2023-02-28T03:05:01;3.17;;;2.50;;
9409;SDS011;4744;52.576;13.568;2023-02-28T03:07:31;2.90;;;2.10;;
9409;SDS011;4744;52.576;13.568;2023-02-28T03:09:58;2.77;;;2.40;;
9409;SDS011;4744;52.576;13.568;2023-02-28T03:12:27;2.20;;;2.00;;
9409;SDS011;4744;52.576;13.568;2023-02-28T03:15:07;2.70;;;2.10;;
9409;SDS011;4744;52.576;13.568;2023-02-28T03:17:46;2.27;;;2.00;;
9409;SDS011;4744;52.576;13.568;2023-02-28T03:20:24;2.93;;;2.30;;
9409;SDS011;4744;52.576;13.568;2023-02-28T03:23:03;2.30;;;2.10;;
9409;SDS011;4744;52.576;13.568;2023-02-28T03:25:49;2.27;;;2.07;;
9409;SDS011;4744;52.576;13.568;2023-02-28T03:28:23;1.93;;;1.80;;
9409;SDS011;4744;52.576;13.568;2023-02-28T03:30:58;2.00;;;1.90;;
9409;SDS011;4744;52.576;13.568;2023-02-28T03:33:30;2.40;;;2.00;;
9409;SDS011;4744;52.576;13.568;2023-02-28T03:36:03;3.60;;;2.27;;
9409;SDS011;4744;52.576;13.568;2023-02-28T03:38:35;1.97;;;1.80;;
9409;SDS011;4744;52.576;13.568;2023-02-28T03:41:06;2.67;;;2.00;;
9409;SDS011;4744;52.576;13.568;2023-02-28T03:43:40;2.13;;;1.93;;
9409;SDS011;4744;52.576;13.568;2023-02-28T03:46:12;2.20;;;2.00;;
9409;SDS011;4744;52.576;13.568;2023-02-28T03:48:42;1.93;;;1.83;;
9409;SDS011;4744;52.576;13.568;2023-02-28T03:51:14;1.97;;;1.83;;
9409;SDS011;4744;52.576;13.568;2023-02-28T03:53:45;2.20;;;2.00;;
9409;SDS011;4744;52.576;13.568;2023-02-28T03:56:18;2.30;;;2.10;;
9409;SDS011;4744;52.576;13.568;2023-02-28T03:58:49;2.67;;;2.00;;
9409;SDS011;4744;52.576;13.568;2023-02-28T04:01:23;2.00;;;1.80;;
9409;SDS011;4744;52.576;13.568;2023-02-28T04:03:54;3.47;;;2.20;;
9409;SDS011;4744;52.576;13.568;2023-02-28T04:06:22;2.40;;;2.20;;
9409;SDS011;4744;52.576;13.568;2023-02-28T04:08:50;2.40;;;2.20;;
9409;SDS011;4744;52.576;13.568;2023-02-28T04:11:22;2.43;;;2.23;;
9409;SDS011;4744;52.576;13.568;2023-02-28T04:13:53;3.07;;;2.43;;
9409;SDS011;4744;52.576;13.568;2023-02-28T04:16:20;2.83;;;2.23;;
9409;SDS011;4744;52.576;13.568;2023-02-28T04:18:47;2.70;;;2.50;;
9409;SDS011;4744;52.576;13.568;2023-02-28T04:21:14;3.03;;;2.67;;
9409;SDS011;4744;52.576;13.568;2023-02-28T04:23:46;4.10;;;2.90;;
9409;SDS011;4744;52.576;13.568;2023-02-28T04:26:13;3.27;;;2.43;;
9409;SDS011;4744;52.576;13.568;2023-02-28T04:28:40;3.47;;;2.70;;
9409;SDS011;4744;52.576;13.568;2023-02-28T04:31:08;2.67;;;2.47;;
9409;SDS011;4744;52.576;13.568;2023-02-28T04:33:35;4.30;;;2.63;;
9409;SDS011;4744;52.576;13.568;2023-02-28T04:36:03;2.77;;;2.57;;
9409;SDS011;4744;52.576;13.568;2023-02-28T04:38:32;5.13;;;2.60;;
9409;SDS011;4744;52.576;13.568;2023-02-28T04:41:02;3.67;;;2.90;;
9409;SDS011;4744;52.576;13.568;2023-02-28T04:43:30;3.23;;;2.50;;
9409;SDS011;4744;52.576;13.568;2023-02-28T04:45:58;3.37;;;2.33;;
9409;SDS011;4744;52.576;13.568;2023-02-28T04:48:28;3.40;;;2.80;;
9409;SDS011;4744;52.576;13.568;2023-02-28T04:50:59;3.40;;;2.67;;
9409;SDS011;4744;52.576;13.568;2023-02-28T04:53:27;3.90;;;3.10;;
9409;SDS011;4744;52.576;13.568;2023-02-28T04:55:54;3.60;;;2.80;;
9409;SDS011;4744;52.576;13.568;2023-02-28T04:58:23;2.90;;;2.60;;
9409;SDS011;4744;52.576;13.568;2023-02-28T05:00:50;3.27;;;2.90;;
9409;SDS011;4744;52.576;13.568;2023-02-28T05:03:17;5.17;;;2.87;;
9409;SDS011;4744;52.576;13.568;2023-02-28T05:05:45;3.43;;;2.83;;
9409;SDS011;4744;52.576;13.568;2023-02-28T05:08:12;3.57;;;3.20;;
9409;SDS011;4744;52.576;13.568;2023-02-28T05:10:39;3.80;;;3.00;;
9409;SDS011;4744;52.576;13.568;2023-02-28T05:13:06;3.70;;;3.10;;
9409;SDS011;4744;52.576;13.568;2023-02-28T05:15:36;3.33;;;2.87;;
9409;SDS011;4744;52.576;13.568;2023-02-28T05:18:03;3.63;;;2.90;;
9409;SDS011;4744;52.576;13.568;2023-02-28T05:20:30;3.27;;;2.93;;
9409;SDS011;4744;52.576;13.568;2023-02-28T05:22:57;3.87;;;3.37;;
9409;SDS011;4744;52.576;13.568;2023-02-28T05:25:26;4.77;;;3.13;;
9409;SDS011;4744;52.576;13.568;2023-02-28T05:27:53;5.03;;;3.60;;
9409;SDS011;4744;52.576;13.568;2023-02-28T05:30:20;4.10;;;3.40;;
9409;SDS011;4744;52.576;13.568;2023-02-28T05:32:49;3.57;;;3.13;;
9409;SDS011;4744;52.576;13.568;2023-02-28T05:35:17;3.80;;;3.07;;
9409;SDS011;4744;52.576;13.568;2023-02-28T05:37:44;3.53;;;3.23;;
9409;SDS011;4744;52.576;13.568;2023-02-28T05:40:11;4.50;;;3.40;;
9409;SDS011;4744;52.576;13.568;2023-02-28T05:42:39;3.47;;;3.10;;
9409;SDS011;4744;52.576;13.568;2023-02-28T05:45:07;3.90;;;3.47;;
9409;SDS011;4744;52.576;13.568;2023-02-28T05:47:35;4.93;;;3.57;;
9409;SDS011;4744;52.576;13.568;2023-02-28T05:50:03;3.77;;;3.40;;
9409;SDS011;4744;52.576;13.568;2023-02-28T05:52:31;5.30;;;3.67;;
9409;SDS011;4744;52.576;13.568;2023-02-28T05:54:58;6.37;;;3.57;;
9409;SDS011;4744;52.576;13.568;2023-02-28T05:57:25;4.97;;;3.17;;
9409;SDS011;4744;52.576;13.568;2023-02-28T05:59:52;4.97;;;3.30;;
9409;SDS011;4744;52.576;13.568;2023-02-28T06:02:19;5.53;;;3.67;;
9409;SDS011;4744;52.576;13.568;2023-02-28T06:04:46;5.53;;;3.73;;
9409;SDS011;4744;52.576;13.568;2023-02-28T06:07:14;4.50;;;3.67;;
9409;SDS011;4744;52.576;13.568;2023-02-28T06:09:42;4.27;;;3.87;;
9409;SDS011;4744;52.576;13.568;2023-02-28T06:12:09;4.03;;;3.17;;
9409;SDS011;4744;52.576;13.568;2023-02-28T06:14:36;3.87;;;3.27;;
9409;SDS011;4744;52.576;13.568;2023-02-28T06:17:03;3.87;;;3.47;;
9409;SDS011;4744;52.576;13.568;2023-02-28T06:19:30;4.10;;;3.20;;
9409;SDS011;4744;52.576;13.568;2023-02-28T06:21:57;4.63;;;3.43;;
9409;SDS011;4744;52.576;13.568;2023-02-28T06:24:26;4.27;;;3.20;;
9409;SDS011;4744;52.576;13.568;2023-02-28T06:26:54;3.83;;;2.67;;
9409;SDS011;4744;52.576;13.568;2023-02-28T06:29:21;3.23;;;2.90;;
9409;SDS011;4744;52.576;13.568;2023-02-28T06:31:48;3.73;;;3.00;;
9409;SDS011;4744;52.576;13.568;2023-02-28T06:34:15;3.77;;;3.40;;
9409;SDS011;4744;52.576;13.568;2023-02-28T06:36:42;3.43;;;2.87;;
9409;SDS011;4744;52.576;13.568;2023-02-28T06:39:09;5.07;;;3.57;;
9409;SDS011;4744;52.576;13.568;2023-02-28T06:41:38;4.47;;;3.43;;
9409;SDS011;4744;52.576;13.568;2023-02-28T06:44:05;4.63;;;3.97;;
9409;SDS011;4744;52.576;13.568;2023-02-28T06:46:40;4.00;;;3.40;;
9409;SDS011;4744;52.576;13.568;2023-02-28T06:49:07;5.93;;;3.87;;
9409;SDS011;4744;52.576;13.568;2023-02-28T06:51:35;5.50;;;3.50;;
9409;SDS011;4744;52.576;13.568;2023-02-28T06:54:03;4.67;;;3.50;;
9409;SDS011;4744;52.576;13.568;2023-02-28T06:56:34;5.00;;;3.50;;
9409;SDS011;4744;52.576;13.568;2023-02-28T06:59:03;4.10;;;3.43;;
9409;SDS011;4744;52.576;13.568;2023-02-28T07:01:30;4.37;;;3.63;;
9409;SDS011;4744;52.576;13.568;2023-02-28T07:03:57;4.70;;;3.57;;
9409;SDS011;4744;52.576;13.568;2023-02-28T07:06:25;4.53;;;3.80;;
9409;SDS011;4744;52.576;13.568;2023-02-28T07:08:52;4.13;;;3.63;;
9409;SDS011;4744;52.576;13.568;2023-02-28T07:11:20;4.67;;;3.87;;
9409;SDS011;4744;52.576;13.568;2023-02-28T07:13:50;4.67;;;3.60;;
9409;SDS011;4744;52.576;13.568;2023-02-28T07:16:19;4.30;;;3.73;;
9409;SDS011;4744;52.576;13.568;2023-02-28T07:18:46;3.93;;;3.10;;
9409;SDS011;4744;52.576;13.568;2023-02-28T07:21:13;4.17;;;3.47;;
9409;SDS011;4744;52.576;13.568;2023-02-28T07:23:41;3.93;;;3.50;;
9409;SDS011;4744;52.576;13.568;2023-02-28T07:26:08;5.47;;;3.83;;
9409;SDS011;4744;52.576;13.568;2023-02-28T07:28:39;5.18;;;3.47;;
9409;SDS011;4744;52.576;13.568;2023-02-28T07:31:08;5.15;;;3.63;;
9409;SDS011;4744;52.576;13.568;2023-02-28T07:33:37;5.47;;;4.00;;
9409;SDS011;4744;52.576;13.568;2023-02-28T07:36:05;6.03;;;4.30;;
9409;SDS011;4744;52.576;13.568;2023-02-28T07:38:34;4.85;;;3.80;;
9409;SDS011;4744;52.576;13.568;2023-02-28T07:41:01;5.78;;;4.25;;
9409;SDS011;4744;52.576;13.568;2023-02-28T07:43:30;5.93;;;4.25;;
9409;SDS011;4744;52.576;13.568;2023-02-28T07:46:00;5.15;;;4.18;;
9409;SDS011;4744;52.576;13.568;2023-02-28T07:48:28;6.65;;;4.22;;
9409;SDS011;4744;52.576;13.568;2023-02-28T07:50:57;5.50;;;3.97;;
9409;SDS011;4744;52.576;13.568;2023-02-28T07:53:25;4.28;;;3.88;;
9409;SDS011;4744;52.576;13.568;2023-02-28T07:55:54;4.03;;;3.63;;
9409;SDS011;4744;52.576;13.568;2023-02-28T07:58:21;4.63;;;3.67;;
9409;SDS011;4744;52.576;13.568;2023-02-28T08:00:49;4.88;;;3.45;;
9409;SDS011;4744;52.576;13.568;2023-02-28T08:03:16;4.88;;;3.90;;
9409;SDS011;4744;52.576;13.568;2023-02-28T08:05:43;4.50;;;3.90;;
9409;SDS011;4744;52.576;13.568;2023-02-28T08:08:12;6.85;;;3.92;;
9409;SDS011;4744;52.576;13.568;2023-02-28T08:10:39;6.35;;;4.25;;
9409;SDS011;4744;52.576;13.568;2023-02-28T08:13:06;4.90;;;4.03;;
9409;SDS011;4744;52.576;13.568;2023-02-28T08:15:33;4.45;;;3.50;;
9409;SDS011;4744;52.576;13.568;2023-02-28T08:17:59;3.40;;;3.10;;
9409;SDS011;4744;52.576;13.568;2023-02-28T08:20:26;3.47;;;3.10;;
9409;SDS011;4744;52.576;13.568;2023-02-28T08:22:53;3.90;;;3.15;;
9409;SDS011;4744;52.576;13.568;2023-02-28T08:25:22;3.65;;;3.20;;
9409;SDS011;4744;52.576;13.568;2023-02-28T08:27:50;3.60;;;3.25;;
9409;SDS011;4744;52.576;13.568;2023-02-28T08:30:17;3.47;;;3.10;;
9409;SDS011;4744;52.576;13.568;2023-02-28T08:32:44;5.18;;;3.40;;
9409;SDS011;4744;52.576;13.568;2023-02-28T08:35:11;3.85;;;3.45;;
9409;SDS011;4744;52.576;13.568;2023-02-28T08:37:38;4.43;;;4.00;;
9409;SDS011;4744;52.576;13.568;2023-02-28T08:40:06;2.25;;;2.00;;
9409;SDS011;4744;52.576;13.568;2023-02-28T08:42:35;3.58;;;2.25;;
9409;SDS011;4744;52.576;13.568;2023-02-28T08:45:02;2.65;;;2.45;;
9409;SDS011;4744;52.576;13.568;2023-02-28T08:47:29;2.33;;;2.13;;
9409;SDS011;4744;52.576;13.568;2023-02-28T08:49:56;2.25;;;2.05;;
9409;SDS011;4744;52.576;13.568;2023-02-28T08:52:23;3.15;;;2.58;;
9409;SDS011;4744;52.576;13.568;2023-02-28T08:54:50;3.42;;;2.25;;
9409;SDS011;4744;52.576;13.568;2023-02-28T08:57:17;3.65;;;2.30;;
9409;SDS011;4744;52.576;13.568;2023-02-28T08:59:45;3.28;;;2.40;;
9409;SDS011;4744;52.576;13.568;2023-02-28T09:02:12;3.47;;;2.13;;
9409;SDS011;4744;52.576;13.568;2023-02-28T09:04:40;2.67;;;2.20;;
9409;SDS011;4744;52.576;13.568;2023-02-28T09:07:07;2.38;;;1.83;;
9409;SDS011;4744;52.576;13.568;2023-02-28T09:09:34;4.78;;;2.05;;
9409;SDS011;4744;52.576;13.568;2023-02-28T09:12:01;1.52;;;1.40;;
9409;SDS011;4744;52.576;13.568;2023-02-28T09:14:28;1.63;;;1.30;;
9409;SDS011;4744;52.576;13.568;2023-02-28T09:16:56;1.63;;;1.52;;
9409;SDS011;4744;52.576;13.568;2023-02-28T09:19:24;2.33;;;1.90;;
9409;SDS011;4744;52.576;13.568;2023-02-28T09:21:51;1.67;;;1.33;;
9409;SDS011;4744;52.576;13.568;2023-02-28T09:24:18;1.98;;;1.80;;
9409;SDS011;4744;52.576;13.568;2023-02-28T09:26:45;1.60;;;1.50;;
9409;SDS011;4744;52.576;13.568;2023-02-28T09:29:12;3.72;;;1.88;;
9409;SDS011;4744;52.576;13.568;2023-02-28T09:31:41;3.80;;;1.92;;
9409;SDS011;4744;52.576;13.568;2023-02-28T09:34:10;2.85;;;1.60;;
9409;SDS011;4744;52.576;13.568;2023-02-28T09:36:37;1.65;;;1.55;;
9409;SDS011;4744;52.576;13.568;2023-02-28T09:39:04;2.00;;;1.40;;
9409;SDS011;4744;52.576;13.568;2023-02-28T09:41:32;1.63;;;1.45;;
9409;SDS011;4744;52.576;13.568;2023-02-28T09:44:12;1.35;;;1.13;;
9409;SDS011;4744;52.576;13.568;2023-02-28T09:46:45;1.52;;;1.40;;
9409;SDS011;4744;52.576;13.568;2023-02-28T09:49:17;1.17;;;1.08;;
9409;SDS011;4744;52.576;13.568;2023-02-28T09:51:49;1.52;;;1.42;;
9409;SDS011;4744;52.576;13.568;2023-02-28T09:54:21;1.38;;;1.27;;
9409;SDS011;4744;52.576;13.568;2023-02-28T09:56:50;1.52;;;1.15;;
9409;SDS011;4744;52.576;13.568;2023-02-28T09:59:26;1.98;;;1.27;;
9409;SDS011;4744;52.576;13.568;2023-02-28T10:02:01;1.40;;;1.30;;
9409;SDS011;4744;52.576;13.568;2023-02-28T10:04:40;1.88;;;1.48;;
9409;SDS011;4744;52.576;13.568;2023-02-28T10:07:18;2.03;;;1.40;;
9409;SDS011;4744;52.576;13.568;2023-02-28T10:10:04;1.80;;;1.60;;
9409;SDS011;4744;52.576;13.568;2023-02-28T10:12:37;1.30;;;1.05;;
9409;SDS011;4744;52.576;13.568;2023-02-28T10:15:08;1.40;;;1.30;;
9409;SDS011;4744;52.576;13.568;2023-02-28T10:17:41;1.33;;;1.23;;
9409;SDS011;4744;52.576;13.568;2023-02-28T10:20:14;1.58;;;1.20;;
9409;SDS011;4744;52.576;13.568;2023-02-28T10:22:50;2.20;;;1.48;;
9409;SDS011;4744;52.576;13.568;2023-02-28T10:25:23;1.67;;;1.50;;
9409;SDS011;4744;52.576;13.568;2023-02-28T10:27:52;1.88;;;1.50;;
9409;SDS011;4744;52.576;13.568;2023-02-28T10:30:24;2.05;;;1.50;;
9409;SDS011;4744;52.576;13.568;2023-02-28T10:32:51;1.95;;;1.45;;
9409;SDS011;4744;52.576;13.568;2023-02-28T10:35:21;3.40;;;1.58;;
9409;SDS011;4744;52.576;13.568;2023-02-28T10:37:51;1.60;;;1.50;;
9409;SDS011;4744;52.576;13.568;2023-02-28T10:40:28;1.42;;;1.33;;
9409;SDS011;4744;52.576;13.568;2023-02-28T10:42:59;1.77;;;1.50;;
9409;SDS011;4744;52.576;13.568;2023-02-28T10:45:28;2.30;;;1.60;;
9409;SDS011;4744;52.576;13.568;2023-02-28T10:47:57;1.73;;;1.63;;
9409;SDS011;4744;52.576;13.568;2023-02-28T10:50:28;1.90;;;1.67;;
9409;SDS011;4744;52.576;13.568;2023-02-28T10:53:05;1.73;;;1.63;;
9409;SDS011;4744;52.576;13.568;2023-02-28T10:55:41;2.03;;;1.63;;
9409;SDS011;4744;52.576;13.568;2023-02-28T10:58:18;2.17;;;1.73;;
9409;SDS011;4744;52.576;13.568;2023-02-28T11:00:47;2.10;;;1.90;;
9409;SDS011;4744;52.576;13.568;2023-02-28T11:03:23;2.10;;;1.90;;
9409;SDS011;4744;52.576;13.568;2023-02-28T11:05:53;2.80;;;1.83;;
9409;SDS011;4744;52.576;13.568;2023-02-28T11:08:20;2.05;;;1.90;;
9409;SDS011;4744;52.576;13.568;2023-02-28T11:10:48;1.92;;;1.77;;
9409;SDS011;4744;52.576;13.568;2023-02-28T11:13:20;2.35;;;2.00;;
9409;SDS011;4744;52.576;13.568;2023-02-28T11:15:52;2.58;;;1.85;;
9409;SDS011;4744;52.576;13.568;2023-02-28T11:18:24;2.25;;;1.70;;
9409;SDS011;4744;52.576;13.568;2023-02-28T11:20:57;2.47;;;1.90;;
9409;SDS011;4744;52.576;13.568;2023-02-28T11:23:26;2.53;;;2.20;;
9409;SDS011;4744;52.576;13.568;2023-02-28T11:25:55;2.10;;;2.00;;
9409;SDS011;4744;52.576;13.568;2023-02-28T11:28:27;2.92;;;2.13;;
9409;SDS011;4744;52.576;13.568;2023-02-28T11:33:26;3.63;;;2.25;;
9409;SDS011;4744;52.576;13.568;2023-02-28T11:35:57;3.70;;;2.20;;
9409;SDS011;4744;52.576;13.568;2023-02-28T11:38:27;2.83;;;2.00;;
9409;SDS011;4744;52.576;13.568;2023-02-28T11:41:02;2.20;;;2.00;;
9409;SDS011;4744;52.576;13.568;2023-02-28T11:43:41;2.78;;;1.88;;
9409;SDS011;4744;52.576;13.568;2023-02-28T11:46:20;1.85;;;1.75;;
9409;SDS011;4744;52.576;13.568;2023-02-28T11:48:58;2.97;;;1.90;;
9409;SDS011;4744;52.576;13.568;2023-02-28T11:51:35;2.10;;;1.88;;
9409;SDS011;4744;52.576;13.568;2023-02-28T11:54:24;2.58;;;1.92;;
9409;SDS011;4744;52.576;13.568;2023-02-28T11:57:14;1.83;;;1.73;;
9409;SDS011;4744;52.576;13.568;2023-02-28T11:59:52;2.25;;;1.98;;
9409;SDS011;4744;52.576;13.568;2023-02-28T12:02:28;2.90;;;2.10;;
9409;SDS011;4744;52.576;13.568;2023-02-28T12:05:03;2.20;;;2.00;;
9409;SDS011;4744;52.576;13.568;2023-02-28T12:07:41;2.78;;;1.98;;
9409;SDS011;4744;52.576;13.568;2023-02-28T12:10:22;3.92;;;2.05;;
9409;SDS011;4744;52.576;13.568;2023-02-28T12:12:55;2.55;;;1.80;;
9409;SDS011;4744;52.576;13.568;2023-02-28T12:21:53;2.33;;;1.92;;
9409;SDS011;4744;52.576;13.568;2023-02-28T12:24:54;1.90;;;1.80;;
9409;SDS011;4744;52.576;13.568;2023-02-28T12:27:41;2.30;;;2.10;;
9409;SDS011;4744;52.576;13.568;2023-02-28T12:30:13;2.17;;;1.88;;
9409;SDS011;4744;52.576;13.568;2023-02-28T12:32:45;2.13;;;1.92;;
9409;SDS011;4744;52.576;13.568;2023-02-28T12:35:16;1.83;;;1.67;;
9409;SDS011;4744;52.576;13.568;2023-02-28T12:37:49;1.75;;;1.60;;
9409;SDS011;4744;52.576;13.568;2023-02-28T12:40:23;1.90;;;1.80;;
9409;SDS011;4744;52.576;13.568;2023-02-28T12:42:56;2.15;;;1.73;;
9409;SDS011;4744;52.576;13.568;2023-02-28T12:45:27;2.97;;;1.67;;
9409;SDS011;4744;52.576;13.568;2023-02-28T12:48:06;2.60;;;1.70;;
9409;SDS011;4744;52.576;13.568;2023-02-28T12:50:42;1.75;;;1.65;;
9409;SDS011;4744;52.576;13.568;2023-02-28T12:53:11;2.05;;;1.85;;
9409;SDS011;4744;52.576;13.568;2023-02-28T12:55:49;1.85;;;1.70;;
9409;SDS011;4744;52.576;13.568;2023-02-28T12:58:25;2.45;;;1.83;;
9409;SDS011;4744;52.576;13.568;2023-02-28T13:06:59;1.88;;;1.65;;
9409;SDS011;4744;52.576;13.568;2023-02-28T13:09:53;2.00;;;1.80;;
9409;SDS011;4744;52.576;13.568;2023-02-28T13:12:24;3.38;;;1.80;;
9409;SDS011;4744;52.576;13.568;2023-02-28T13:14:52;1.98;;;1.75;;
9409;SDS011;4744;52.576;13.568;2023-02-28T13:17:31;2.90;;;1.98;;
9409;SDS011;4744;52.576;13.568;2023-02-28T13:19:59;2.80;;;1.92;;
9409;SDS011;4744;52.576;13.568;2023-02-28T13:22:36;2.20;;;2.00;;
9409;SDS011;4744;52.576;13.568;2023-02-28T13:28:10;1.88;;;1.77;;
9409;SDS011;4744;52.576;13.568;2023-02-28T13:33:31;1.75;;;1.63;;
9409;SDS011;4744;52.576;13.568;2023-02-28T13:36:10;2.40;;;1.92;;
9409;SDS011;4744;52.576;13.568;2023-02-28T13:38:54;2.38;;;1.60;;
9409;SDS011;4744;52.576;13.568;2023-02-28T13:41:41;2.03;;;1.70;;
9409;SDS011;4744;52.576;13.568;2023-02-28T13:44:14;2.15;;;1.80;;
9409;SDS011;4744;52.576;13.568;2023-02-28T13:49:46;2.03;;;1.80;;
9409;SDS011;4744;52.576;13.568;2023-02-28T13:52:15;2.38;;;2.05;;
9409;SDS011;4744;52.576;13.568;2023-02-28T13:54:56;1.83;;;1.67;;
9409;SDS011;4744;52.576;13.568;2023-02-28T13:57:54;2.05;;;1.80;;
9409;SDS011;4744;52.576;13.568;2023-02-28T14:00:35;2.08;;;1.83;;
9409;SDS011;4744;52.576;13.568;2023-02-28T14:06:08;2.33;;;2.13;;
9409;SDS011;4744;52.576;13.568;2023-02-28T14:08:44;2.67;;;2.17;;
9409;SDS011;4744;52.576;13.568;2023-02-28T14:11:24;2.25;;;2.05;;
9409;SDS011;4744;52.576;13.568;2023-02-28T14:13:54;2.30;;;2.10;;
9409;SDS011;4744;52.576;13.568;2023-02-28T14:16:23;3.38;;;2.13;;
9409;SDS011;4744;52.576;13.568;2023-02-28T14:18:55;2.10;;;1.85;;
9409;SDS011;4744;52.576;13.568;2023-02-28T14:21:26;2.20;;;2.00;;
9409;SDS011;4744;52.576;13.568;2023-02-28T14:27:03;2.20;;;2.00;;
9409;SDS011;4744;52.576;13.568;2023-02-28T14:30:03;2.33;;;2.13;;
9409;SDS011;4744;52.576;13.568;2023-02-28T14:32:58;2.50;;;2.30;;
9409;SDS011;4744;52.576;13.568;2023-02-28T14:35:43;2.35;;;2.10;;
9409;SDS011;4744;52.576;13.568;2023-02-28T14:38:20;4.40;;;2.08;;
9409;SDS011;4744;52.576;13.568;2023-02-28T14:40:51;2.60;;;2.40;;
9409;SDS011;4744;52.576;13.568;2023-02-28T14:43:21;2.38;;;2.13;;
9409;SDS011;4744;52.576;13.568;2023-02-28T14:45:49;3.08;;;2.03;;
9409;SDS011;4744;52.576;13.568;2023-02-28T14:48:19;2.15;;;2.05;;
9409;SDS011;4744;52.576;13.568;2023-02-28T14:50:52;2.00;;;1.90;;
9409;SDS011;4744;52.576;13.568;2023-02-28T14:53:22;2.67;;;2.00;;
9409;SDS011;4744;52.576;13.568;2023-02-28T14:55:52;2.97;;;2.20;;
9409;SDS011;4744;52.576;13.568;2023-02-28T14:58:23;2.20;;;2.00;;
9409;SDS011;4744;52.576;13.568;2023-02-28T15:00:52;2.50;;;2.30;;
9409;SDS011;4744;52.576;13.568;2023-02-28T15:03:22;2.75;;;2.22;;
9409;SDS011;4744;52.576;13.568;2023-02-28T15:05:54;2.20;;;2.10;;
9409;SDS011;4744;52.576;13.568;2023-02-28T15:08:23;2.40;;;2.20;;
9409;SDS011;4744;52.576;13.568;2023-02-28T15:10:52;2.65;;;1.95;;
9409;SDS011;4744;52.576;13.568;2023-02-28T15:13:21;3.70;;;2.20;;
9409;SDS011;4744;52.576;13.568;2023-02-28T15:15:52;2.40;;;2.20;;
9409;SDS011;4744;52.576;13.568;2023-02-28T15:18:24;2.40;;;2.20;;
9409;SDS011;4744;52.576;13.568;2023-02-28T15:20:58;2.78;;;2.17;;
9409;SDS011;4744;52.576;13.568;2023-02-28T15:23:28;2.22;;;1.92;;
9409;SDS011;4744;52.576;13.568;2023-02-28T15:25:56;2.70;;;2.10;;
9409;SDS011;4744;52.576;13.568;2023-02-28T15:28:24;2.40;;;2.20;;
9409;SDS011;4744;52.576;13.568;2023-02-28T15:30:52;2.20;;;2.00;;
9409;SDS011;4744;52.576;13.568;2023-02-28T15:33:22;3.33;;;2.45;;
9409;SDS011;4744;52.576;13.568;2023-02-28T15:36:02;3.28;;;2.20;;
9409;SDS011;4744;52.576;13.568;2023-02-28T15:38:33;2.47;;;2.13;;
9409;SDS011;4744;52.576;13.568;2023-02-28T15:41:01;6.15;;;2.42;;
9409;SDS011;4744;52.576;13.568;2023-02-28T15:43:33;2.75;;;1.85;;
9409;SDS011;4744;52.576;13.568;2023-02-28T15:46:01;2.20;;;1.58;;
9409;SDS011;4744;52.576;13.568;2023-02-28T15:48:33;2.28;;;1.70;;
9409;SDS011;4744;52.576;13.568;2023-02-28T15:51:02;3.20;;;2.55;;
9409;SDS011;4744;52.576;13.568;2023-02-28T15:53:34;3.38;;;2.30;;
9409;SDS011;4744;52.576;13.568;2023-02-28T15:56:04;4.50;;;2.28;;
9409;SDS011;4744;52.576;13.568;2023-02-28T15:58:34;3.67;;;2.13;;
9409;SDS011;4744;52.576;13.568;2023-02-28T16:01:07;3.15;;;2.45;;